Welcome to Des Moines Iowa Weather. I am an independent private personal weather station on the Northwest Side of Des Moines, Iowa. Just East of Windsor Heights and just West of Glendale . This site is also mobile friendly.

There are no active watches, warnings or advisories


Visit our other weather sites:

Historical Data

Weather Station Setup



Weather Underground History page Text

Daily Summary for March 8, 2017 Units:  English    Metric   Both
« Previous Day
Next Day »
Daily Weekly Monthly Yearly Custom
  High: Low: Average:
Temperature: 53.1 °F 34.4 °F 42.7 °F
Dew Point: 23.5 °F 14.1 °F 19.1 °F
Humidity: 59 % 23 % 41 %
Wind Speed: 9.0 mph 0.0 mph 2.1 mph
Wind Gust: 20.0 mph - -
Wind:- - West
Pressure: 30.21 in 30.04 in -
Precipitation: 0.00 in    
Historical Graphs
 
 
Tabular Data for March 8, 2017
Time Temperature Dew Point Pressure Wind Wind Speed Wind Gust Humidity Rainfall Rate (Hourly)
00:00 38.8 °F 23.0 °F 30.05 in Calm     54 % 0.00 in
00:05 39.7 °F 23.1 °F 30.04 in Calm     51 % 0.00 in
00:10 39.2 °F 23.5 °F 30.04 in Calm     53 % 0.00 in
00:15 38.2 °F 23.0 °F 30.06 in Calm     54 % 0.00 in
00:20 39.2 °F 23.5 °F 30.04 in Calm     53 % 0.00 in
00:25 38.5 °F 22.9 °F 30.05 in Calm     53 % 0.00 in
00:30 38.5 °F 22.9 °F 30.05 in Calm     53 % 0.00 in
00:35 38.5 °F 22.9 °F 30.05 in Calm     53 % 0.00 in
00:40 37.9 °F 22.8 °F 30.05 in Calm   3.0 mph 54 % 0.00 in
00:45 37.4 °F 22.0 °F 30.07 in West 4.0 mph 4.0 mph 55 % 0.00 in
00:50 37.5 °F 22.4 °F 30.06 in Calm   1.0 mph 54 % 0.00 in
00:55 37.5 °F 22.4 °F 30.06 in Calm   1.0 mph 54 % 0.00 in
01:00 37.2 °F 22.0 °F 30.07 in Calm     55 % 0.00 in
01:05 37.3 °F 22.2 °F 30.06 in Calm     54 % 0.00 in
01:10 37.3 °F 22.2 °F 30.06 in Calm     54 % 0.00 in
01:15 36.8 °F 22.0 °F 30.07 in Calm   2.0 mph 56 % 0.00 in
01:20 37.0 °F 22.4 °F 30.07 in Calm   1.0 mph 55 % 0.00 in
01:25 37.0 °F 22.4 °F 30.07 in Calm   1.0 mph 55 % 0.00 in
01:30 36.5 °F 22.0 °F 30.08 in Calm     56 % 0.00 in
01:35 37.0 °F 22.4 °F 30.07 in Calm   1.0 mph 55 % 0.00 in
01:40 36.6 °F 22.0 °F 30.07 in Calm   2.0 mph 55 % 0.00 in
01:45 36.4 °F 22.0 °F 30.08 in SW 2.0 mph 2.0 mph 56 % 0.00 in
01:50 36.6 °F 22.0 °F 30.07 in Calm   2.0 mph 55 % 0.00 in
01:55 36.4 °F 21.8 °F 30.07 in Calm   2.0 mph 55 % 0.00 in
02:00 36.3 °F 22.0 °F 30.08 in Calm   3.0 mph 57 % 0.00 in
02:05 36.4 °F 21.8 °F 30.07 in Calm   2.0 mph 55 % 0.00 in
02:10 36.4 °F 22.2 °F 30.07 in Calm   2.0 mph 56 % 0.00 in
02:15 36.1 °F 22.0 °F 30.08 in Calm   4.0 mph 58 % 0.00 in
02:20 36.4 °F 22.2 °F 30.07 in Calm   2.0 mph 56 % 0.00 in
02:25 36.2 °F 22.4 °F 30.07 in Calm   3.0 mph 57 % 0.00 in
02:30 35.9 °F 22.0 °F 30.08 in Calm   3.0 mph 58 % 0.00 in
02:35 36.0 °F 22.3 °F 30.07 in Calm   3.0 mph 57 % 0.00 in
02:40 36.0 °F 22.3 °F 30.07 in Calm   3.0 mph 57 % 0.00 in
02:45 35.6 °F 22.0 °F 30.08 in Calm   4.0 mph 58 % 0.00 in
02:50 35.7 °F 22.0 °F 30.07 in Calm   3.0 mph 57 % 0.00 in
02:55 35.7 °F 22.0 °F 30.07 in Calm   3.0 mph 57 % 0.00 in
03:00 35.8 °F 22.0 °F 30.08 in Calm   5.0 mph 58 % 0.00 in
03:05 35.7 °F 22.0 °F 30.07 in WNW 1.0 mph 4.0 mph 57 % 0.00 in
03:10 35.7 °F 22.0 °F 30.07 in WNW 1.0 mph 4.0 mph 57 % 0.00 in
03:15 36.2 °F 22.0 °F 30.08 in WNW 3.0 mph 7.0 mph 56 % 0.00 in
03:20 35.7 °F 22.0 °F 30.07 in WNW 1.0 mph 4.0 mph 57 % 0.00 in
03:25 36.0 °F 21.4 °F 30.07 in West 2.0 mph 4.0 mph 55 % 0.00 in
03:30 36.7 °F 22.0 °F 30.09 in NW 4.0 mph 7.0 mph 55 % 0.00 in
03:35 36.0 °F 21.4 °F 30.07 in West 2.0 mph 4.0 mph 55 % 0.00 in
03:40 36.5 °F 21.5 °F 30.07 in WNW 2.0 mph 7.0 mph 54 % 0.00 in
03:45 37.2 °F 21.0 °F 30.09 in NW 5.0 mph 10.0 mph 53 % 0.00 in
03:50 36.5 °F 21.5 °F 30.07 in WNW 2.0 mph 7.0 mph 54 % 0.00 in
03:55 36.9 °F 20.9 °F 30.07 in WNW 3.0 mph 7.0 mph 52 % 0.00 in
04:00 37.4 °F 22.0 °F 30.09 in West 2.0 mph 7.0 mph 53 % 0.00 in
04:05 36.9 °F 20.9 °F 30.07 in WNW 3.0 mph 7.0 mph 52 % 0.00 in
04:10 37.4 °F 21.4 °F 30.08 in NW 2.0 mph 4.0 mph 52 % 0.00 in
04:15 37.2 °F 22.0 °F 30.10 in WNW 3.0 mph 5.0 mph 54 % 0.00 in
04:20 37.4 °F 21.4 °F 30.08 in NW 2.0 mph 4.0 mph 52 % 0.00 in
04:25 37.3 °F 21.8 °F 30.08 in WNW 2.0 mph 7.0 mph 53 % 0.00 in
04:30 36.8 °F 21.0 °F 30.10 in NW 2.0 mph 7.0 mph 54 % 0.00 in
04:35 37.3 °F 21.8 °F 30.08 in WNW 2.0 mph 7.0 mph 53 % 0.00 in
04:40 37.0 °F 21.5 °F 30.08 in NW 2.0 mph 6.0 mph 53 % 0.00 in
04:45 36.5 °F 22.0 °F 30.10 in WSW 4.0 mph 6.0 mph 55 % 0.00 in
04:50 36.7 °F 21.6 °F 30.09 in WNW 2.0 mph 4.0 mph 54 % 0.00 in
04:55 36.7 °F 21.6 °F 30.09 in WNW 2.0 mph 4.0 mph 54 % 0.00 in
05:00 36.3 °F 21.0 °F 30.10 in WSW 5.0 mph 8.0 mph 55 % 0.00 in
05:05 36.7 °F 21.6 °F 30.09 in WNW 2.0 mph 4.0 mph 54 % 0.00 in
05:10 36.4 °F 21.4 °F 30.09 in West 2.0 mph 8.0 mph 54 % 0.00 in
05:15 36.3 °F 20.0 °F 30.10 in NW 6.0 mph 9.0 mph 53 % 0.00 in
05:20 36.4 °F 21.4 °F 30.09 in West 2.0 mph 8.0 mph 54 % 0.00 in
05:25 36.3 °F 20.4 °F 30.09 in WNW 2.0 mph 8.0 mph 52 % 0.00 in
05:30 36.2 °F 20.0 °F 30.09 in Calm   6.0 mph 53 % 0.00 in
05:35 36.3 °F 20.4 °F 30.09 in WNW 2.0 mph 8.0 mph 52 % 0.00 in
05:40 36.3 °F 20.4 °F 30.08 in WNW 2.0 mph 7.0 mph 52 % 0.00 in
05:45 36.0 °F 20.0 °F 30.10 in Calm   5.0 mph 53 % 0.00 in
05:50 36.3 °F 20.4 °F 30.08 in WNW 2.0 mph 7.0 mph 52 % 0.00 in
05:55 36.1 °F 20.2 °F 30.08 in NW 1.0 mph 4.0 mph 52 % 0.00 in
06:00 35.7 °F 20.0 °F 30.10 in NW 3.0 mph 6.0 mph 53 % 0.00 in
06:05 36.1 °F 20.2 °F 30.08 in NW 1.0 mph 4.0 mph 52 % 0.00 in
06:10 35.9 °F 20.0 °F 30.08 in NW 2.0 mph 5.0 mph 52 % 0.00 in
06:15 35.6 °F 19.0 °F 30.09 in NW 2.0 mph 10.0 mph 51 % 0.00 in
06:20 35.9 °F 20.0 °F 30.08 in NW 2.0 mph 5.0 mph 52 % 0.00 in
06:25 35.6 °F 18.8 °F 30.08 in NW 3.0 mph 9.0 mph 50 % 0.00 in
06:30 35.4 °F 19.0 °F 30.13 in Calm   9.0 mph 51 % 0.00 in
06:35 35.6 °F 18.8 °F 30.08 in NW 3.0 mph 9.0 mph 50 % 0.00 in
06:40 35.5 °F 18.7 °F 30.11 in WNW 2.0 mph 11.0 mph 50 % 0.00 in
06:45 35.1 °F 18.0 °F 30.13 in West 2.0 mph 4.0 mph 51 % 0.00 in
06:50 35.2 °F 18.5 °F 30.12 in West 1.0 mph 3.0 mph 50 % 0.00 in
06:55 35.2 °F 18.5 °F 30.12 in West 1.0 mph 3.0 mph 50 % 0.00 in
07:00 34.7 °F 19.0 °F 30.15 in Calm   3.0 mph 52 % 0.00 in
07:05 35.2 °F 18.5 °F 30.12 in West 1.0 mph 3.0 mph 50 % 0.00 in
07:10 34.9 °F 18.6 °F 30.13 in Calm   4.0 mph 51 % 0.00 in
07:15 34.9 °F 18.6 °F 30.13 in Calm   4.0 mph 51 % 0.00 in
07:16 34.4 °F 18.0 °F 30.15 in Calm   1.0 mph 51 % 0.00 in
07:20 34.9 °F 18.6 °F 30.13 in Calm   4.0 mph 51 % 0.00 in
07:25 34.6 °F 18.4 °F 30.14 in Calm   1.0 mph 51 % 0.00 in
07:30 34.6 °F 18.4 °F 30.14 in Calm   1.0 mph 51 % 0.00 in
07:31 34.4 °F 18.0 °F 30.16 in Calm   9.0 mph 51 % 0.00 in
07:35 34.6 °F 18.4 °F 30.14 in Calm   1.0 mph 51 % 0.00 in
07:40 34.4 °F 17.7 °F 30.14 in WNW 1.0 mph 3.0 mph 50 % 0.00 in
07:45 34.4 °F 17.7 °F 30.14 in WNW 1.0 mph 3.0 mph 50 % 0.00 in
07:46 35.4 °F 18.0 °F 30.18 in WNW 4.0 mph 13.0 mph 50 % 0.00 in
07:50 34.4 °F 17.7 °F 30.14 in WNW 1.0 mph 3.0 mph 50 % 0.00 in
07:55 34.7 °F 17.5 °F 30.16 in WNW 2.0 mph 10.0 mph 49 % 0.00 in
08:00 34.7 °F 17.5 °F 30.16 in WNW 2.0 mph 10.0 mph 49 % 0.00 in
08:01 36.6 °F 18.0 °F 30.18 in Calm   9.0 mph 47 % 0.00 in
08:05 34.7 °F 17.5 °F 30.16 in WNW 2.0 mph 10.0 mph 49 % 0.00 in
08:10 35.9 °F 16.6 °F 30.16 in West 2.0 mph 9.0 mph 45 % 0.00 in
08:15 35.9 °F 16.6 °F 30.16 in West 2.0 mph 9.0 mph 45 % 0.00 in
08:16 37.4 °F 17.0 °F 30.18 in WNW 3.0 mph 10.0 mph 44 % 0.00 in
08:20 35.9 °F 16.6 °F 30.16 in West 2.0 mph 9.0 mph 45 % 0.00 in
08:25 36.9 °F 17.0 °F 30.16 in West 2.0 mph 7.0 mph 44 % 0.00 in
08:30 36.9 °F 17.0 °F 30.16 in West 2.0 mph 7.0 mph 44 % 0.00 in
08:31 37.9 °F 18.0 °F 30.18 in West 3.0 mph 11.0 mph 44 % 0.00 in
08:35 36.9 °F 17.0 °F 30.16 in West 2.0 mph 7.0 mph 44 % 0.00 in
08:40 37.7 °F 17.2 °F 30.17 in West 3.0 mph 11.0 mph 43 % 0.00 in
08:45 37.7 °F 17.2 °F 30.17 in West 3.0 mph 11.0 mph 43 % 0.00 in
08:46 38.3 °F 18.0 °F 30.19 in NW 3.0 mph 10.0 mph 44 % 0.00 in
08:50 37.7 °F 17.2 °F 30.17 in West 3.0 mph 11.0 mph 43 % 0.00 in
08:55 38.1 °F 17.6 °F 30.17 in WNW 2.0 mph 7.0 mph 43 % 0.00 in
09:00 38.1 °F 17.6 °F 30.17 in WNW 2.0 mph 7.0 mph 43 % 0.00 in
09:01 38.7 °F 18.0 °F 30.19 in WSW 3.0 mph 11.0 mph 44 % 0.00 in
09:05 38.1 °F 17.6 °F 30.17 in WNW 2.0 mph 7.0 mph 43 % 0.00 in
09:10 38.5 °F 17.4 °F 30.17 in WNW 3.0 mph 8.0 mph 42 % 0.00 in
09:15 38.5 °F 17.4 °F 30.17 in WNW 3.0 mph 8.0 mph 42 % 0.00 in
09:16 39.4 °F 18.0 °F 30.19 in WNW 2.0 mph 13.0 mph 43 % 0.00 in
09:20 38.5 °F 17.4 °F 30.17 in WNW 3.0 mph 8.0 mph 42 % 0.00 in
09:25 39.0 °F 18.4 °F 30.18 in WNW 2.0 mph 10.0 mph 43 % 0.00 in
09:30 39.0 °F 18.4 °F 30.18 in WNW 2.0 mph 10.0 mph 43 % 0.00 in
09:31 40.0 °F 17.0 °F 30.20 in SW 5.0 mph 10.0 mph 40 % 0.00 in
09:35 39.0 °F 18.4 °F 30.18 in WNW 2.0 mph 10.0 mph 43 % 0.00 in
09:40 39.6 °F 17.3 °F 30.18 in West 3.0 mph 9.0 mph 40 % 0.00 in
09:45 39.6 °F 17.3 °F 30.18 in West 3.0 mph 9.0 mph 40 % 0.00 in
09:46 41.1 °F 18.0 °F 30.20 in NW 5.0 mph 12.0 mph 39 % 0.00 in
09:50 39.6 °F 17.3 °F 30.18 in West 3.0 mph 9.0 mph 40 % 0.00 in
09:55 40.3 °F 16.7 °F 30.18 in WNW 3.0 mph 12.0 mph 38 % 0.00 in
10:00 40.3 °F 16.7 °F 30.18 in WNW 3.0 mph 12.0 mph 38 % 0.00 in
10:01 42.1 °F 17.0 °F 30.20 in WNW 3.0 mph 13.0 mph 36 % 0.00 in
10:05 40.3 °F 16.7 °F 30.18 in WNW 3.0 mph 12.0 mph 38 % 0.00 in
10:10 41.4 °F 14.5 °F 30.19 in WNW 4.0 mph 10.0 mph 33 % 0.00 in
10:15 41.4 °F 14.5 °F 30.19 in WNW 4.0 mph 10.0 mph 33 % 0.00 in
10:16 42.9 °F 17.0 °F 30.21 in NW 3.0 mph 12.0 mph 35 % 0.00 in
10:20 41.4 °F 14.5 °F 30.19 in WNW 4.0 mph 10.0 mph 33 % 0.00 in
10:25 42.3 °F 15.3 °F 30.19 in WNW 4.0 mph 16.0 mph 33 % 0.00 in
10:30 42.3 °F 15.3 °F 30.19 in WNW 4.0 mph 16.0 mph 33 % 0.00 in
10:31 44.1 °F 16.0 °F 30.21 in NW 1.0 mph 13.0 mph 32 % 0.00 in
10:35 42.3 °F 15.3 °F 30.19 in WNW 4.0 mph 16.0 mph 33 % 0.00 in
10:40 43.3 °F 14.7 °F 30.19 in WNW 4.0 mph 11.0 mph 31 % 0.00 in
10:45 43.3 °F 14.7 °F 30.19 in WNW 4.0 mph 11.0 mph 31 % 0.00 in
10:46 44.0 °F 16.0 °F 30.21 in NW 4.0 mph 12.0 mph 32 % 0.00 in
10:50 43.3 °F 14.7 °F 30.19 in WNW 4.0 mph 11.0 mph 31 % 0.00 in
10:55 44.0 °F 14.6 °F 30.20 in WNW 5.0 mph 15.0 mph 30 % 0.00 in
11:00 44.0 °F 14.6 °F 30.20 in WNW 5.0 mph 15.0 mph 30 % 0.00 in
11:01 45.2 °F 16.0 °F 30.21 in WNW 8.0 mph 13.0 mph 31 % 0.00 in
11:05 44.3 °F 14.1 °F 30.19 in WNW 4.0 mph 10.0 mph 29 % 0.00 in
11:10 44.3 °F 14.1 °F 30.19 in WNW 4.0 mph 10.0 mph 29 % 0.00 in
11:15 44.3 °F 14.1 °F 30.19 in WNW 4.0 mph 10.0 mph 29 % 0.00 in
11:16 46.9 °F 17.0 °F 30.21 in NW 4.0 mph 12.0 mph 30 % 0.00 in
11:20 45.6 °F 15.2 °F 30.19 in NW 4.0 mph 9.0 mph 29 % 0.00 in
11:25 45.6 °F 15.2 °F 30.19 in NW 4.0 mph 9.0 mph 29 % 0.00 in
11:30 45.6 °F 15.2 °F 30.19 in NW 4.0 mph 9.0 mph 29 % 0.00 in
11:32 47.1 °F 16.0 °F 30.21 in WNW 9.0 mph 20.0 mph 29 % 0.00 in
11:35 46.7 °F 14.5 °F 30.19 in WNW 5.0 mph 15.0 mph 27 % 0.00 in
11:40 46.7 °F 14.5 °F 30.19 in WNW 5.0 mph 15.0 mph 27 % 0.00 in
11:45 46.7 °F 14.5 °F 30.19 in WNW 5.0 mph 15.0 mph 27 % 0.00 in
11:47 48.1 °F 16.0 °F 30.20 in WNW 5.0 mph 16.0 mph 28 % 0.00 in
11:50 46.7 °F 14.5 °F 30.19 in WNW 5.0 mph 15.0 mph 27 % 0.00 in
11:55 47.4 °F 15.9 °F 30.19 in WNW 5.0 mph 13.0 mph 28 % 0.00 in
12:00 47.4 °F 15.9 °F 30.19 in WNW 5.0 mph 13.0 mph 28 % 0.00 in
12:02 48.8 °F 18.0 °F 30.21 in NW 9.0 mph 14.0 mph 29 % 0.00 in
12:05 47.4 °F 15.9 °F 30.19 in WNW 5.0 mph 13.0 mph 28 % 0.00 in
12:10 48.3 °F 16.7 °F 30.19 in WNW 5.0 mph 16.0 mph 28 % 0.00 in
12:15 48.3 °F 16.7 °F 30.19 in WNW 5.0 mph 16.0 mph 28 % 0.00 in
12:17 49.9 °F 18.0 °F 30.20 in West 3.0 mph 15.0 mph 28 % 0.00 in
12:20 48.3 °F 16.7 °F 30.19 in WNW 5.0 mph 16.0 mph 28 % 0.00 in
12:25 49.0 °F 17.3 °F 30.19 in NW 5.0 mph 14.0 mph 28 % 0.00 in
12:30 49.0 °F 17.3 °F 30.19 in NW 5.0 mph 14.0 mph 28 % 0.00 in
12:32 51.4 °F 18.0 °F 30.20 in NW 3.0 mph 15.0 mph 27 % 0.00 in
12:35 49.0 °F 17.3 °F 30.19 in NW 5.0 mph 14.0 mph 28 % 0.00 in
12:40 50.7 °F 16.2 °F 30.18 in WNW 4.0 mph 11.0 mph 25 % 0.00 in
12:45 50.7 °F 16.2 °F 30.18 in WNW 4.0 mph 11.0 mph 25 % 0.00 in
12:47 51.3 °F 17.0 °F 30.19 in WNW 2.0 mph 15.0 mph 26 % 0.00 in
12:50 51.3 °F 16.7 °F 30.17 in NW 4.0 mph 12.0 mph 25 % 0.00 in
12:55 51.3 °F 16.7 °F 30.17 in NW 4.0 mph 12.0 mph 25 % 0.00 in
13:00 51.3 °F 16.7 °F 30.17 in NW 4.0 mph 12.0 mph 25 % 0.00 in
13:02 51.9 °F 18.0 °F 30.19 in West 8.0 mph 13.0 mph 26 % 0.00 in
13:05 51.6 °F 17.9 °F 30.17 in WNW 5.0 mph 14.0 mph 26 % 0.00 in
13:10 51.6 °F 17.9 °F 30.17 in WNW 5.0 mph 14.0 mph 26 % 0.00 in
13:15 51.6 °F 17.9 °F 30.17 in WNW 5.0 mph 14.0 mph 26 % 0.00 in
13:17 52.9 °F 19.0 °F 30.18 in West 2.0 mph 10.0 mph 26 % 0.00 in
13:20 52.1 °F 19.1 °F 30.16 in WNW 4.0 mph 12.0 mph 27 % 0.00 in
13:25 52.1 °F 19.1 °F 30.16 in WNW 4.0 mph 12.0 mph 27 % 0.00 in
13:30 52.1 °F 19.1 °F 30.16 in WNW 4.0 mph 12.0 mph 27 % 0.00 in
13:32 52.4 °F 16.0 °F 30.17 in NW 4.0 mph 15.0 mph 24 % 0.00 in
13:35 52.1 °F 19.1 °F 30.16 in WNW 4.0 mph 12.0 mph 27 % 0.00 in
13:40 52.7 °F 17.9 °F 30.15 in West 4.0 mph 11.0 mph 25 % 0.00 in
13:45 52.7 °F 17.9 °F 30.15 in West 4.0 mph 11.0 mph 25 % 0.00 in
13:47 52.6 °F 18.0 °F 30.16 in West 4.0 mph 12.0 mph 25 % 0.00 in
13:50 52.7 °F 17.9 °F 30.15 in West 4.0 mph 11.0 mph 25 % 0.00 in
13:55 52.7 °F 16.9 °F 30.15 in WNW 4.0 mph 8.0 mph 24 % 0.00 in
14:00 52.7 °F 16.9 °F 30.15 in WNW 4.0 mph 8.0 mph 24 % 0.00 in
14:02 53.1 °F 19.0 °F 30.16 in NNE 8.0 mph 12.0 mph 26 % 0.00 in
14:05 52.7 °F 16.9 °F 30.15 in WNW 4.0 mph 8.0 mph 24 % 0.00 in
14:10 52.6 °F 16.8 °F 30.15 in West 4.0 mph 10.0 mph 24 % 0.00 in
14:15 52.6 °F 16.8 °F 30.15 in West 4.0 mph 10.0 mph 24 % 0.00 in
14:17 52.7 °F 18.0 °F 30.16 in WNW 1.0 mph 12.0 mph 25 % 0.00 in
14:20 52.6 °F 16.8 °F 30.15 in West 4.0 mph 10.0 mph 24 % 0.00 in
14:25 52.5 °F 16.8 °F 30.14 in NW 5.0 mph 13.0 mph 24 % 0.00 in
14:30 52.5 °F 16.8 °F 30.14 in NW 5.0 mph 13.0 mph 24 % 0.00 in
14:32 52.7 °F 17.0 °F 30.16 in Calm   12.0 mph 24 % 0.00 in
14:35 52.5 °F 16.8 °F 30.14 in NW 5.0 mph 13.0 mph 24 % 0.00 in
14:40 52.4 °F 15.7 °F 30.14 in NW 4.0 mph 12.0 mph 23 % 0.00 in
14:45 52.4 °F 15.7 °F 30.14 in NW 4.0 mph 12.0 mph 23 % 0.00 in
14:47 52.3 °F 17.0 °F 30.15 in NW 9.0 mph 12.0 mph 25 % 0.00 in
14:50 52.5 °F 15.8 °F 30.14 in NW 4.0 mph 11.0 mph 23 % 0.00 in
14:55 52.5 °F 15.8 °F 30.14 in NW 4.0 mph 11.0 mph 23 % 0.00 in
15:00 52.5 °F 15.8 °F 30.14 in NW 4.0 mph 11.0 mph 23 % 0.00 in
15:02 52.2 °F 17.0 °F 30.15 in WNW 3.0 mph 10.0 mph 25 % 0.00 in
15:05 52.2 °F 16.5 °F 30.13 in NW 4.0 mph 11.0 mph 24 % 0.00 in
15:10 52.2 °F 16.5 °F 30.13 in NW 4.0 mph 11.0 mph 24 % 0.00 in
15:15 52.2 °F 16.5 °F 30.13 in NW 4.0 mph 11.0 mph 24 % 0.00 in
15:17 52.1 °F 16.0 °F 30.15 in ESE 3.0 mph 13.0 mph 24 % 0.00 in
15:20 52.2 °F 16.5 °F 30.13 in NW 4.0 mph 11.0 mph 24 % 0.00 in
15:25 52.2 °F 17.5 °F 30.13 in WNW 3.0 mph 8.0 mph 25 % 0.00 in
15:30 52.2 °F 17.5 °F 30.13 in WNW 3.0 mph 8.0 mph 25 % 0.00 in
15:32 51.6 °F 16.0 °F 30.14 in NW 5.0 mph 12.0 mph 24 % 0.00 in
15:35 52.2 °F 17.5 °F 30.13 in WNW 3.0 mph 8.0 mph 25 % 0.00 in
15:40 51.9 °F 16.3 °F 30.13 in NW 3.0 mph 10.0 mph 24 % 0.00 in
15:45 51.9 °F 16.3 °F 30.13 in NW 3.0 mph 10.0 mph 24 % 0.00 in
15:48 51.7 °F 17.0 °F 30.15 in NNW 9.0 mph 13.0 mph 25 % 0.00 in
15:50 51.9 °F 16.3 °F 30.13 in NW 3.0 mph 10.0 mph 24 % 0.00 in
15:55 51.9 °F 17.2 °F 30.13 in WNW 3.0 mph 6.0 mph 25 % 0.00 in
16:00 51.9 °F 17.2 °F 30.13 in WNW 3.0 mph 5.0 mph 25 % 0.00 in
16:03 51.7 °F 18.0 °F 30.14 in NNE 5.0 mph 10.0 mph 26 % 0.00 in
16:05 51.9 °F 17.2 °F 30.13 in WNW 3.0 mph 5.0 mph 25 % 0.00 in
16:10 51.8 °F 16.2 °F 30.13 in WNW 3.0 mph 11.0 mph 24 % 0.00 in
16:15 51.8 °F 16.2 °F 30.13 in WNW 3.0 mph 11.0 mph 24 % 0.00 in
16:18 51.8 °F 18.0 °F 30.14 in NNW 2.0 mph 10.0 mph 26 % 0.00 in
16:20 51.8 °F 16.2 °F 30.13 in WNW 3.0 mph 11.0 mph 24 % 0.00 in
16:25 51.8 °F 17.1 °F 30.13 in NW 3.0 mph 10.0 mph 25 % 0.00 in
16:30 51.8 °F 17.1 °F 30.13 in NW 3.0 mph 10.0 mph 25 % 0.00 in
16:33 51.2 °F 17.0 °F 30.14 in NE 9.0 mph 11.0 mph 26 % 0.00 in
16:35 51.8 °F 17.1 °F 30.13 in NW 3.0 mph 10.0 mph 25 % 0.00 in
16:40 51.6 °F 16.0 °F 30.13 in NW 4.0 mph 9.0 mph 24 % 0.00 in
16:45 51.6 °F 16.0 °F 30.13 in NW 4.0 mph 9.0 mph 24 % 0.00 in
16:48 50.5 °F 17.0 °F 30.14 in NW 4.0 mph 12.0 mph 27 % 0.00 in
16:50 51.6 °F 16.0 °F 30.13 in NW 4.0 mph 9.0 mph 24 % 0.00 in
16:55 51.1 °F 18.3 °F 30.13 in NW 3.0 mph 11.0 mph 27 % 0.00 in
17:00 51.1 °F 18.3 °F 30.13 in NW 3.0 mph 11.0 mph 27 % 0.00 in
17:03 50.3 °F 17.0 °F 30.15 in NNW 3.0 mph 6.0 mph 27 % 0.00 in
17:05 51.1 °F 18.3 °F 30.13 in NW 3.0 mph 11.0 mph 27 % 0.00 in
17:10 50.4 °F 16.8 °F 30.13 in NW 3.0 mph 7.0 mph 26 % 0.00 in
17:15 50.4 °F 16.8 °F 30.13 in NW 3.0 mph 7.0 mph 26 % 0.00 in
17:18 49.8 °F 18.0 °F 30.15 in NNE 7.0 mph 12.0 mph 28 % 0.00 in
17:20 50.1 °F 17.4 °F 30.13 in NW 3.0 mph 10.0 mph 27 % 0.00 in
17:25 50.1 °F 17.4 °F 30.13 in NW 3.0 mph 10.0 mph 27 % 0.00 in
17:30 50.1 °F 17.4 °F 30.13 in NW 3.0 mph 10.0 mph 27 % 0.00 in
17:33 49.3 °F 17.0 °F 30.15 in NNW 5.0 mph 10.0 mph 28 % 0.00 in
17:35 49.8 °F 18.0 °F 30.13 in NNW 3.0 mph 10.0 mph 28 % 0.00 in
17:40 49.8 °F 18.0 °F 30.13 in NNW 3.0 mph 10.0 mph 28 % 0.00 in
17:45 49.8 °F 18.0 °F 30.13 in NNW 3.0 mph 10.0 mph 28 % 0.00 in
17:48 48.7 °F 18.0 °F 30.15 in NNW 1.0 mph 6.0 mph 29 % 0.00 in
17:50 49.1 °F 18.2 °F 30.13 in NW 2.0 mph 8.0 mph 29 % 0.00 in
17:55 49.1 °F 18.2 °F 30.13 in NW 2.0 mph 8.0 mph 29 % 0.00 in
18:00 49.1 °F 18.2 °F 30.13 in NW 2.0 mph 8.0 mph 29 % 0.00 in
18:03 48.2 °F 19.0 °F 30.15 in Calm   6.0 mph 31 % 0.00 in
18:05 48.6 °F 17.8 °F 30.13 in NW 1.0 mph 5.0 mph 29 % 0.00 in
18:10 48.6 °F 17.8 °F 30.13 in NW 1.0 mph 5.0 mph 29 % 0.00 in
18:15 48.6 °F 17.8 °F 30.13 in NW 1.0 mph 5.0 mph 29 % 0.00 in
18:18 47.4 °F 18.0 °F 30.15 in Calm   3.0 mph 31 % 0.00 in
18:20 47.8 °F 17.9 °F 30.13 in Calm   2.0 mph 30 % 0.00 in
18:25 47.8 °F 17.9 °F 30.13 in Calm   2.0 mph 30 % 0.00 in
18:30 47.8 °F 17.9 °F 30.13 in Calm   2.0 mph 30 % 0.00 in
18:33 47.1 °F 18.0 °F 30.15 in Calm     32 % 0.00 in
18:35 47.8 °F 17.9 °F 30.13 in Calm   2.0 mph 30 % 0.00 in
18:40 47.3 °F 18.2 °F 30.13 in Calm     31 % 0.00 in
18:45 47.3 °F 18.2 °F 30.13 in Calm     31 % 0.00 in
18:48 46.4 °F 19.0 °F 30.15 in Calm     34 % 0.00 in
18:50 47.3 °F 18.2 °F 30.13 in Calm     31 % 0.00 in
18:55 46.9 °F 19.3 °F 30.14 in Calm     33 % 0.00 in
19:00 46.9 °F 19.3 °F 30.14 in Calm     33 % 0.00 in
19:03 45.4 °F 20.0 °F 30.15 in Calm     37 % 0.00 in
19:05 46.9 °F 19.3 °F 30.14 in Calm     33 % 0.00 in
19:10 46.1 °F 20.0 °F 30.14 in Calm     35 % 0.00 in
19:15 46.1 °F 20.0 °F 30.14 in Calm     35 % 0.00 in
19:18 44.5 °F 20.0 °F 30.15 in Calm     37 % 0.00 in
19:20 46.1 °F 20.0 °F 30.14 in Calm     35 % 0.00 in
19:25 45.1 °F 19.8 °F 30.14 in Calm     36 % 0.00 in
19:30 45.1 °F 19.8 °F 30.14 in Calm     36 % 0.00 in
19:33 43.7 °F 21.0 °F 30.16 in Calm     40 % 0.00 in
19:35 44.3 °F 20.3 °F 30.14 in Calm     38 % 0.00 in
19:40 44.3 °F 20.3 °F 30.14 in Calm     38 % 0.00 in
19:45 44.3 °F 20.3 °F 30.14 in Calm     38 % 0.00 in
19:48 42.8 °F 21.0 °F 30.16 in Calm     42 % 0.00 in
19:50 44.3 °F 20.3 °F 30.14 in Calm     38 % 0.00 in
19:55 43.4 °F 20.7 °F 30.14 in Calm     40 % 0.00 in
20:00 43.4 °F 20.7 °F 30.14 in Calm     40 % 0.00 in
20:03 41.9 °F 21.0 °F 30.16 in Calm     44 % 0.00 in
20:05 43.4 °F 20.7 °F 30.14 in Calm     40 % 0.00 in
20:10 42.5 °F 21.6 °F 30.15 in Calm     43 % 0.00 in
20:15 42.5 °F 21.6 °F 30.15 in Calm     43 % 0.00 in
20:18 41.3 °F 21.0 °F 30.17 in Calm     44 % 0.00 in
20:20 42.5 °F 21.6 °F 30.15 in Calm     43 % 0.00 in
20:25 41.7 °F 20.9 °F 30.15 in Calm     43 % 0.00 in
20:30 41.7 °F 20.9 °F 30.15 in Calm     43 % 0.00 in
20:33 40.8 °F 21.0 °F 30.17 in Calm     46 % 0.00 in
20:35 41.1 °F 20.9 °F 30.15 in Calm     44 % 0.00 in
20:40 41.1 °F 20.9 °F 30.15 in Calm     44 % 0.00 in
20:45 41.1 °F 20.9 °F 30.15 in Calm     44 % 0.00 in
20:48 40.2 °F 21.0 °F 30.17 in Calm   2.0 mph 46 % 0.00 in
20:50 40.6 °F 21.0 °F 30.16 in Calm   2.0 mph 45 % 0.00 in
20:55 40.6 °F 21.0 °F 30.16 in Calm   2.0 mph 45 % 0.00 in
21:00 40.6 °F 21.0 °F 30.16 in Calm   2.0 mph 45 % 0.00 in
21:03 39.9 °F 21.0 °F 30.17 in Calm   1.0 mph 48 % 0.00 in
21:05 40.1 °F 21.5 °F 30.15 in Calm   1.0 mph 47 % 0.00 in
21:10 40.1 °F 21.5 °F 30.15 in Calm   1.0 mph 47 % 0.00 in
21:15 40.1 °F 21.5 °F 30.15 in Calm   1.0 mph 47 % 0.00 in
21:18 39.6 °F 22.0 °F 30.18 in Calm     50 % 0.00 in
21:20 40.1 °F 21.5 °F 30.15 in Calm   1.0 mph 47 % 0.00 in
21:25 39.8 °F 22.2 °F 30.16 in Calm     49 % 0.00 in
21:30 39.8 °F 22.2 °F 30.16 in Calm     49 % 0.00 in
21:33 39.5 °F 22.0 °F 30.18 in ENE 3.0 mph 4.0 mph 49 % 0.00 in
21:35 39.8 °F 22.2 °F 30.16 in Calm     49 % 0.00 in
21:40 39.6 °F 21.5 °F 30.15 in Calm   2.0 mph 48 % 0.00 in
21:45 39.6 °F 21.5 °F 30.15 in Calm   2.0 mph 48 % 0.00 in
21:48 39.7 °F 22.0 °F 30.17 in Calm   4.0 mph 49 % 0.00 in
21:50 39.6 °F 21.5 °F 30.15 in Calm   2.0 mph 48 % 0.00 in
21:55 39.6 °F 21.5 °F 30.15 in ENE 1.0 mph 5.0 mph 48 % 0.00 in
22:00 39.6 °F 21.5 °F 30.15 in ENE 1.0 mph 5.0 mph 48 % 0.00 in
22:03 39.6 °F 22.0 °F 30.17 in Calm   2.0 mph 50 % 0.00 in
22:05 39.6 °F 21.5 °F 30.15 in ENE 1.0 mph 5.0 mph 48 % 0.00 in
22:10 39.7 °F 21.6 °F 30.15 in Calm   4.0 mph 48 % 0.00 in
22:15 39.7 °F 21.6 °F 30.15 in Calm   4.0 mph 48 % 0.00 in
22:18 39.1 °F 22.0 °F 30.17 in Calm   5.0 mph 51 % 0.00 in
22:20 39.7 °F 21.6 °F 30.15 in Calm   4.0 mph 48 % 0.00 in
22:25 39.5 °F 22.4 °F 30.15 in ENE 1.0 mph 4.0 mph 50 % 0.00 in
22:30 39.5 °F 22.4 °F 30.15 in ENE 1.0 mph 4.0 mph 50 % 0.00 in
22:33 38.9 °F 23.0 °F 30.16 in Calm   3.0 mph 53 % 0.00 in
22:35 39.5 °F 22.4 °F 30.15 in ENE 1.0 mph 4.0 mph 50 % 0.00 in
22:40 39.1 °F 23.0 °F 30.14 in ENE 1.0 mph 4.0 mph 52 % 0.00 in
22:45 39.1 °F 23.0 °F 30.14 in ENE 1.0 mph 4.0 mph 52 % 0.00 in
22:48 38.3 °F 23.0 °F 30.15 in ENE 2.0 mph 6.0 mph 54 % 0.00 in
22:50 39.1 °F 23.0 °F 30.14 in ENE 1.0 mph 4.0 mph 52 % 0.00 in
22:55 38.7 °F 23.0 °F 30.13 in Calm   3.0 mph 53 % 0.00 in
23:00 38.7 °F 23.0 °F 30.13 in Calm   3.0 mph 53 % 0.00 in
23:03 37.9 °F 23.0 °F 30.15 in ENE 4.0 mph 7.0 mph 55 % 0.00 in
23:05 38.7 °F 23.0 °F 30.13 in Calm   3.0 mph 53 % 0.00 in
23:10 38.2 °F 23.0 °F 30.14 in East 1.0 mph 7.0 mph 54 % 0.00 in
23:15 38.2 °F 23.0 °F 30.14 in East 1.0 mph 7.0 mph 54 % 0.00 in
23:18 37.5 °F 23.0 °F 30.14 in Calm   6.0 mph 56 % 0.00 in
23:20 37.8 °F 23.1 °F 30.12 in ENE 1.0 mph 5.0 mph 55 % 0.00 in
23:25 37.8 °F 23.1 °F 30.12 in ENE 1.0 mph 5.0 mph 55 % 0.00 in
23:30 37.8 °F 23.1 °F 30.12 in ENE 1.0 mph 5.0 mph 55 % 0.00 in
23:33 36.9 °F 23.0 °F 30.13 in Calm   3.0 mph 58 % 0.00 in
23:35 37.3 °F 23.5 °F 30.11 in Calm   4.0 mph 57 % 0.00 in
23:40 37.3 °F 23.5 °F 30.11 in Calm   4.0 mph 57 % 0.00 in
23:45 37.3 °F 23.5 °F 30.11 in Calm   4.0 mph 57 % 0.00 in
23:48 36.5 °F 23.0 °F 30.13 in Calm   3.0 mph 59 % 0.00 in
23:50 36.8 °F 23.0 °F 30.11 in ENE 1.0 mph 4.0 mph 57 % 0.00 in
23:55 36.8 °F 23.0 °F 30.11 in ENE 1.0 mph 4.0 mph 57 % 0.00 in
Des Moines Weather and Climate
Compliments of Weather Underground - 4.5 mb

Script developed by  Jim McMurry - jmcmurry@mwt.net Adapted for the template by  Wim van der Kuil - Leuven-Template.eu

You find our weather info also at:

Weather Underground

Equipment we use:

Weather-station
Davis VP2 Plus

Weather-program
Davis Weatherlink.Com

Weather-server
iMac (Retina 4K, 21.5-inch, Late 2015)

Provider
Hostmonster.com

Davis VP2 Plus

Davis Weatherlink.Com

iMac (Retina 4K, 21.5-inch, Late 2015)

Hostmonster.com